sensor_id;sensor_type;location;lat;lon;timestamp;temperature;humidity
10121;DHT22;5100;45.176;5.714;2022-12-07T00:01:15;8.10;68.70
10121;DHT22;5100;45.176;5.714;2022-12-07T00:03:43;8.00;68.70
10121;DHT22;5100;45.176;5.714;2022-12-07T00:06:12;8.00;68.70
10121;DHT22;5100;45.176;5.714;2022-12-07T00:08:38;8.00;68.70
10121;DHT22;5100;45.176;5.714;2022-12-07T00:11:07;8.00;68.80
10121;DHT22;5100;45.176;5.714;2022-12-07T00:13:35;8.00;68.80
10121;DHT22;5100;45.176;5.714;2022-12-07T00:16:06;8.00;68.70
10121;DHT22;5100;45.176;5.714;2022-12-07T00:18:33;8.00;68.70
10121;DHT22;5100;45.176;5.714;2022-12-07T00:21:04;8.00;68.70
10121;DHT22;5100;45.176;5.714;2022-12-07T00:23:31;8.00;68.80
10121;DHT22;5100;45.176;5.714;2022-12-07T00:26:06;8.00;68.80
10121;DHT22;5100;45.176;5.714;2022-12-07T00:28:33;8.00;68.80
10121;DHT22;5100;45.176;5.714;2022-12-07T00:31:02;8.00;68.80
10121;DHT22;5100;45.176;5.714;2022-12-07T00:33:28;8.00;68.70
10121;DHT22;5100;45.176;5.714;2022-12-07T00:35:58;8.00;68.70
10121;DHT22;5100;45.176;5.714;2022-12-07T00:38:28;8.00;68.80
10121;DHT22;5100;45.176;5.714;2022-12-07T00:40:59;8.00;68.90
10121;DHT22;5100;45.176;5.714;2022-12-07T00:43:26;8.00;69.10
10121;DHT22;5100;45.176;5.714;2022-12-07T00:45:53;8.00;68.90
10121;DHT22;5100;45.176;5.714;2022-12-07T00:48:20;8.00;68.90
10121;DHT22;5100;45.176;5.714;2022-12-07T00:50:47;8.00;68.90
10121;DHT22;5100;45.176;5.714;2022-12-07T00:53:13;8.00;68.90
10121;DHT22;5100;45.176;5.714;2022-12-07T00:55:39;8.00;69.00
10121;DHT22;5100;45.176;5.714;2022-12-07T00:58:05;8.00;69.10
10121;DHT22;5100;45.176;5.714;2022-12-07T01:00:32;8.00;69.20
10121;DHT22;5100;45.176;5.714;2022-12-07T01:02:59;8.00;69.30
10121;DHT22;5100;45.176;5.714;2022-12-07T01:05:27;8.00;69.20
10121;DHT22;5100;45.176;5.714;2022-12-07T01:07:53;8.00;69.20
10121;DHT22;5100;45.176;5.714;2022-12-07T01:10:18;8.00;69.20
10121;DHT22;5100;45.176;5.714;2022-12-07T01:12:45;8.00;69.30
10121;DHT22;5100;45.176;5.714;2022-12-07T01:15:11;8.00;69.50
10121;DHT22;5100;45.176;5.714;2022-12-07T01:17:37;8.00;69.70
10121;DHT22;5100;45.176;5.714;2022-12-07T01:20:04;8.00;69.60
10121;DHT22;5100;45.176;5.714;2022-12-07T01:22:30;8.00;69.70
10121;DHT22;5100;45.176;5.714;2022-12-07T01:24:56;8.00;69.70
10121;DHT22;5100;45.176;5.714;2022-12-07T01:27:22;8.00;69.60
10121;DHT22;5100;45.176;5.714;2022-12-07T01:29:48;8.00;69.70
10121;DHT22;5100;45.176;5.714;2022-12-07T01:32:14;7.90;69.80
10121;DHT22;5100;45.176;5.714;2022-12-07T01:34:41;7.90;69.90
10121;DHT22;5100;45.176;5.714;2022-12-07T01:37:07;7.90;69.70
10121;DHT22;5100;45.176;5.714;2022-12-07T01:39:33;7.90;69.80
10121;DHT22;5100;45.176;5.714;2022-12-07T01:41:59;7.90;69.80
10121;DHT22;5100;45.176;5.714;2022-12-07T01:44:29;7.90;69.90
10121;DHT22;5100;45.176;5.714;2022-12-07T01:47:00;7.90;70.10
10121;DHT22;5100;45.176;5.714;2022-12-07T01:49:40;7.90;70.20
10121;DHT22;5100;45.176;5.714;2022-12-07T01:52:16;7.90;70.10
10121;DHT22;5100;45.176;5.714;2022-12-07T01:54:46;7.90;70.00
10121;DHT22;5100;45.176;5.714;2022-12-07T01:57:14;7.90;70.10
10121;DHT22;5100;45.176;5.714;2022-12-07T01:59:42;7.90;70.10
10121;DHT22;5100;45.176;5.714;2022-12-07T02:02:15;7.90;70.20
10121;DHT22;5100;45.176;5.714;2022-12-07T02:04:43;7.90;70.20
10121;DHT22;5100;45.176;5.714;2022-12-07T02:07:10;7.90;70.10
10121;DHT22;5100;45.176;5.714;2022-12-07T02:09:36;7.90;70.10
10121;DHT22;5100;45.176;5.714;2022-12-07T02:12:03;7.90;70.00
10121;DHT22;5100;45.176;5.714;2022-12-07T02:14:29;7.90;70.00
10121;DHT22;5100;45.176;5.714;2022-12-07T02:22:48;7.90;69.80
10121;DHT22;5100;45.176;5.714;2022-12-07T02:25:23;7.90;69.80
10121;DHT22;5100;45.176;5.714;2022-12-07T02:28:18;7.90;69.80
10121;DHT22;5100;45.176;5.714;2022-12-07T02:30:48;7.80;69.80
10121;DHT22;5100;45.176;5.714;2022-12-07T02:33:19;7.80;69.80
10121;DHT22;5100;45.176;5.714;2022-12-07T02:35:55;7.80;69.80
10121;DHT22;5100;45.176;5.714;2022-12-07T02:38:35;7.80;69.80
10121;DHT22;5100;45.176;5.714;2022-12-07T02:41:11;7.80;69.70
10121;DHT22;5100;45.176;5.714;2022-12-07T02:44:14;7.80;69.70
10121;DHT22;5100;45.176;5.714;2022-12-07T02:46:38;7.80;69.70
10121;DHT22;5100;45.176;5.714;2022-12-07T02:49:06;7.90;69.70
10121;DHT22;5100;45.176;5.714;2022-12-07T02:51:39;7.90;69.60
10121;DHT22;5100;45.176;5.714;2022-12-07T02:54:17;7.90;69.50
10121;DHT22;5100;45.176;5.714;2022-12-07T03:02:35;7.90;69.60
10121;DHT22;5100;45.176;5.714;2022-12-07T03:16:04;7.80;69.80
10121;DHT22;5100;45.176;5.714;2022-12-07T03:18:37;7.90;69.80
10121;DHT22;5100;45.176;5.714;2022-12-07T03:21:09;7.90;69.80
10121;DHT22;5100;45.176;5.714;2022-12-07T03:23:39;7.90;70.00
10121;DHT22;5100;45.176;5.714;2022-12-07T03:26:09;7.90;69.90
10121;DHT22;5100;45.176;5.714;2022-12-07T03:28:42;7.90;69.90
10121;DHT22;5100;45.176;5.714;2022-12-07T03:31:17;7.90;69.70
10121;DHT22;5100;45.176;5.714;2022-12-07T03:33:47;7.90;69.70
10121;DHT22;5100;45.176;5.714;2022-12-07T03:39:03;7.90;69.70
10121;DHT22;5100;45.176;5.714;2022-12-07T03:41:34;7.90;70.00
10121;DHT22;5100;45.176;5.714;2022-12-07T03:44:05;7.90;70.40
10121;DHT22;5100;45.176;5.714;2022-12-07T03:49:30;7.90;70.40
10121;DHT22;5100;45.176;5.714;2022-12-07T03:57:11;7.90;71.10
10121;DHT22;5100;45.176;5.714;2022-12-07T03:59:40;7.90;71.00
10121;DHT22;5100;45.176;5.714;2022-12-07T04:02:07;7.90;71.00
10121;DHT22;5100;45.176;5.714;2022-12-07T04:04:34;7.90;70.80
10121;DHT22;5100;45.176;5.714;2022-12-07T04:07:00;7.90;70.50
10121;DHT22;5100;45.176;5.714;2022-12-07T04:09:26;7.90;70.60
10121;DHT22;5100;45.176;5.714;2022-12-07T04:11:52;7.90;70.50
10121;DHT22;5100;45.176;5.714;2022-12-07T04:14:18;7.90;70.50
10121;DHT22;5100;45.176;5.714;2022-12-07T04:16:53;8.00;70.30
10121;DHT22;5100;45.176;5.714;2022-12-07T04:19:24;8.00;70.10
10121;DHT22;5100;45.176;5.714;2022-12-07T04:21:51;8.00;70.20
10121;DHT22;5100;45.176;5.714;2022-12-07T04:24:17;8.00;70.40
10121;DHT22;5100;45.176;5.714;2022-12-07T04:26:45;8.00;70.40
10121;DHT22;5100;45.176;5.714;2022-12-07T04:29:11;8.00;70.40
10121;DHT22;5100;45.176;5.714;2022-12-07T04:31:39;8.00;70.40
10121;DHT22;5100;45.176;5.714;2022-12-07T04:34:06;8.00;70.20
10121;DHT22;5100;45.176;5.714;2022-12-07T04:36:32;8.00;70.50
10121;DHT22;5100;45.176;5.714;2022-12-07T04:38:59;8.00;70.10
10121;DHT22;5100;45.176;5.714;2022-12-07T04:41:25;8.00;70.20
10121;DHT22;5100;45.176;5.714;2022-12-07T04:44:02;8.00;70.10
10121;DHT22;5100;45.176;5.714;2022-12-07T04:46:30;8.00;70.30
10121;DHT22;5100;45.176;5.714;2022-12-07T04:48:57;8.00;70.50
10121;DHT22;5100;45.176;5.714;2022-12-07T04:51:26;8.00;70.50
10121;DHT22;5100;45.176;5.714;2022-12-07T04:53:53;8.00;70.30
10121;DHT22;5100;45.176;5.714;2022-12-07T04:56:19;8.00;70.60
10121;DHT22;5100;45.176;5.714;2022-12-07T04:58:47;8.00;70.80
10121;DHT22;5100;45.176;5.714;2022-12-07T05:01:16;8.00;70.30
10121;DHT22;5100;45.176;5.714;2022-12-07T05:03:43;8.10;70.50
10121;DHT22;5100;45.176;5.714;2022-12-07T05:06:09;8.10;70.50
10121;DHT22;5100;45.176;5.714;2022-12-07T05:08:36;8.00;70.60
10121;DHT22;5100;45.176;5.714;2022-12-07T05:11:04;8.00;70.50
10121;DHT22;5100;45.176;5.714;2022-12-07T05:13:30;8.00;70.40
10121;DHT22;5100;45.176;5.714;2022-12-07T05:15:57;8.00;70.50
10121;DHT22;5100;45.176;5.714;2022-12-07T05:18:23;8.00;70.70
10121;DHT22;5100;45.176;5.714;2022-12-07T05:20:49;8.00;70.60
10121;DHT22;5100;45.176;5.714;2022-12-07T05:23:17;8.00;70.60
10121;DHT22;5100;45.176;5.714;2022-12-07T05:25:44;8.00;70.30
10121;DHT22;5100;45.176;5.714;2022-12-07T05:28:10;8.10;70.30
10121;DHT22;5100;45.176;5.714;2022-12-07T05:30:37;8.00;70.30
10121;DHT22;5100;45.176;5.714;2022-12-07T05:33:03;8.00;70.50
10121;DHT22;5100;45.176;5.714;2022-12-07T05:35:30;8.00;70.40
10121;DHT22;5100;45.176;5.714;2022-12-07T05:37:57;8.00;70.50
10121;DHT22;5100;45.176;5.714;2022-12-07T05:40:24;8.00;70.50
10121;DHT22;5100;45.176;5.714;2022-12-07T05:42:50;8.10;70.70
10121;DHT22;5100;45.176;5.714;2022-12-07T05:45:16;8.00;70.70
10121;DHT22;5100;45.176;5.714;2022-12-07T05:47:42;8.00;70.50
10121;DHT22;5100;45.176;5.714;2022-12-07T05:50:08;8.00;70.60
10121;DHT22;5100;45.176;5.714;2022-12-07T05:52:34;8.00;70.70
10121;DHT22;5100;45.176;5.714;2022-12-07T05:55:00;8.00;70.50
10121;DHT22;5100;45.176;5.714;2022-12-07T05:57:26;8.00;70.70
10121;DHT22;5100;45.176;5.714;2022-12-07T05:59:53;8.00;70.60
10121;DHT22;5100;45.176;5.714;2022-12-07T06:02:19;8.00;70.50
10121;DHT22;5100;45.176;5.714;2022-12-07T06:04:46;8.00;70.60
10121;DHT22;5100;45.176;5.714;2022-12-07T06:07:14;8.10;70.30
10121;DHT22;5100;45.176;5.714;2022-12-07T06:09:41;8.00;70.10
10121;DHT22;5100;45.176;5.714;2022-12-07T06:12:10;8.10;70.30
10121;DHT22;5100;45.176;5.714;2022-12-07T06:14:55;8.10;70.10
10121;DHT22;5100;45.176;5.714;2022-12-07T06:17:21;8.10;70.10
10121;DHT22;5100;45.176;5.714;2022-12-07T06:19:47;8.10;70.40
10121;DHT22;5100;45.176;5.714;2022-12-07T06:22:13;8.10;70.30
10121;DHT22;5100;45.176;5.714;2022-12-07T06:24:40;8.10;70.30
10121;DHT22;5100;45.176;5.714;2022-12-07T06:27:06;8.10;70.30
10121;DHT22;5100;45.176;5.714;2022-12-07T06:29:32;8.10;70.40
10121;DHT22;5100;45.176;5.714;2022-12-07T06:31:59;8.10;70.30
10121;DHT22;5100;45.176;5.714;2022-12-07T06:34:25;8.10;70.50
10121;DHT22;5100;45.176;5.714;2022-12-07T06:36:52;8.10;70.00
10121;DHT22;5100;45.176;5.714;2022-12-07T06:39:21;8.10;70.00
10121;DHT22;5100;45.176;5.714;2022-12-07T06:41:47;8.10;69.70
10121;DHT22;5100;45.176;5.714;2022-12-07T06:44:14;8.10;69.30
10121;DHT22;5100;45.176;5.714;2022-12-07T06:46:41;8.10;69.20
10121;DHT22;5100;45.176;5.714;2022-12-07T06:49:07;8.10;68.90
10121;DHT22;5100;45.176;5.714;2022-12-07T06:51:33;8.10;69.20
10121;DHT22;5100;45.176;5.714;2022-12-07T06:54:03;8.10;69.10
10121;DHT22;5100;45.176;5.714;2022-12-07T06:56:29;8.10;68.50
10121;DHT22;5100;45.176;5.714;2022-12-07T06:58:55;8.10;68.60
10121;DHT22;5100;45.176;5.714;2022-12-07T07:01:22;8.10;69.00
10121;DHT22;5100;45.176;5.714;2022-12-07T07:03:48;8.10;69.30
10121;DHT22;5100;45.176;5.714;2022-12-07T07:06:14;8.10;69.70
10121;DHT22;5100;45.176;5.714;2022-12-07T07:08:41;8.10;69.80
10121;DHT22;5100;45.176;5.714;2022-12-07T07:11:08;8.10;69.80
10121;DHT22;5100;45.176;5.714;2022-12-07T07:13:34;8.10;69.80
10121;DHT22;5100;45.176;5.714;2022-12-07T07:16:01;8.10;69.90
10121;DHT22;5100;45.176;5.714;2022-12-07T07:18:27;8.10;69.60
10121;DHT22;5100;45.176;5.714;2022-12-07T07:20:53;8.20;69.30
10121;DHT22;5100;45.176;5.714;2022-12-07T07:23:21;8.20;69.10
10121;DHT22;5100;45.176;5.714;2022-12-07T07:25:47;8.20;68.80
10121;DHT22;5100;45.176;5.714;2022-12-07T07:28:14;8.20;68.40
10121;DHT22;5100;45.176;5.714;2022-12-07T07:30:40;8.20;68.50
10121;DHT22;5100;45.176;5.714;2022-12-07T07:33:06;8.20;68.30
10121;DHT22;5100;45.176;5.714;2022-12-07T07:35:33;8.20;68.10
10121;DHT22;5100;45.176;5.714;2022-12-07T07:38:00;8.20;67.80
10121;DHT22;5100;45.176;5.714;2022-12-07T07:40:27;8.20;67.90
10121;DHT22;5100;45.176;5.714;2022-12-07T07:42:54;8.20;67.90
10121;DHT22;5100;45.176;5.714;2022-12-07T07:45:22;8.20;68.00
10121;DHT22;5100;45.176;5.714;2022-12-07T07:47:49;8.20;67.90
10121;DHT22;5100;45.176;5.714;2022-12-07T07:50:15;8.30;68.10
10121;DHT22;5100;45.176;5.714;2022-12-07T07:52:42;8.20;68.50
10121;DHT22;5100;45.176;5.714;2022-12-07T07:55:08;8.30;68.60
10121;DHT22;5100;45.176;5.714;2022-12-07T07:57:35;8.30;68.40
10121;DHT22;5100;45.176;5.714;2022-12-07T08:00:07;8.30;68.10
10121;DHT22;5100;45.176;5.714;2022-12-07T08:02:38;8.30;67.50
10121;DHT22;5100;45.176;5.714;2022-12-07T08:05:05;8.30;67.50
10121;DHT22;5100;45.176;5.714;2022-12-07T08:07:31;8.30;67.30
10121;DHT22;5100;45.176;5.714;2022-12-07T08:09:57;8.30;67.30
10121;DHT22;5100;45.176;5.714;2022-12-07T08:12:23;8.30;67.60
10121;DHT22;5100;45.176;5.714;2022-12-07T08:14:49;8.30;67.90
10121;DHT22;5100;45.176;5.714;2022-12-07T08:17:15;8.30;68.10
10121;DHT22;5100;45.176;5.714;2022-12-07T08:19:41;8.30;68.50
10121;DHT22;5100;45.176;5.714;2022-12-07T08:22:07;8.30;68.80
10121;DHT22;5100;45.176;5.714;2022-12-07T08:24:34;8.30;69.00
10121;DHT22;5100;45.176;5.714;2022-12-07T08:27:01;8.30;69.10
10121;DHT22;5100;45.176;5.714;2022-12-07T08:29:27;8.30;69.10
10121;DHT22;5100;45.176;5.714;2022-12-07T08:31:53;8.30;69.20
10121;DHT22;5100;45.176;5.714;2022-12-07T08:34:20;8.30;69.30
10121;DHT22;5100;45.176;5.714;2022-12-07T08:36:45;8.30;69.30
10121;DHT22;5100;45.176;5.714;2022-12-07T08:39:11;8.30;69.30
10121;DHT22;5100;45.176;5.714;2022-12-07T08:41:38;8.30;69.40
10121;DHT22;5100;45.176;5.714;2022-12-07T08:44:04;8.30;69.20
10121;DHT22;5100;45.176;5.714;2022-12-07T08:46:38;8.30;69.30
10121;DHT22;5100;45.176;5.714;2022-12-07T08:49:31;8.30;69.50
10121;DHT22;5100;45.176;5.714;2022-12-07T08:51:57;8.30;69.60
10121;DHT22;5100;45.176;5.714;2022-12-07T08:54:23;8.30;69.60
10121;DHT22;5100;45.176;5.714;2022-12-07T08:56:50;8.30;69.60
10121;DHT22;5100;45.176;5.714;2022-12-07T08:59:18;8.30;69.40
10121;DHT22;5100;45.176;5.714;2022-12-07T09:01:45;8.40;69.30
10121;DHT22;5100;45.176;5.714;2022-12-07T09:04:11;8.30;69.10
10121;DHT22;5100;45.176;5.714;2022-12-07T09:06:37;8.40;69.10
10121;DHT22;5100;45.176;5.714;2022-12-07T09:09:04;8.40;69.40
10121;DHT22;5100;45.176;5.714;2022-12-07T09:11:30;8.40;69.40
10121;DHT22;5100;45.176;5.714;2022-12-07T09:13:56;8.40;69.60
10121;DHT22;5100;45.176;5.714;2022-12-07T09:16:23;8.40;69.70
10121;DHT22;5100;45.176;5.714;2022-12-07T09:18:49;8.40;69.60
10121;DHT22;5100;45.176;5.714;2022-12-07T09:21:16;8.40;69.80
10121;DHT22;5100;45.176;5.714;2022-12-07T09:23:42;8.40;69.50
10121;DHT22;5100;45.176;5.714;2022-12-07T09:26:08;8.40;68.80
10121;DHT22;5100;45.176;5.714;2022-12-07T09:28:34;8.40;69.20
10121;DHT22;5100;45.176;5.714;2022-12-07T09:31:02;8.40;69.30
10121;DHT22;5100;45.176;5.714;2022-12-07T09:33:28;8.40;69.30
10121;DHT22;5100;45.176;5.714;2022-12-07T09:35:54;8.40;69.40
10121;DHT22;5100;45.176;5.714;2022-12-07T09:38:20;8.50;69.50
10121;DHT22;5100;45.176;5.714;2022-12-07T09:40:47;8.40;69.60
10121;DHT22;5100;45.176;5.714;2022-12-07T09:43:21;8.50;69.40
10121;DHT22;5100;45.176;5.714;2022-12-07T09:45:51;8.60;69.50
10121;DHT22;5100;45.176;5.714;2022-12-07T09:48:29;8.60;69.10
10121;DHT22;5100;45.176;5.714;2022-12-07T09:50:59;8.60;68.80
10121;DHT22;5100;45.176;5.714;2022-12-07T09:53:33;8.60;68.60
10121;DHT22;5100;45.176;5.714;2022-12-07T09:56:01;8.70;68.50
10121;DHT22;5100;45.176;5.714;2022-12-07T09:58:29;8.70;68.60
10121;DHT22;5100;45.176;5.714;2022-12-07T10:00:58;8.70;68.50
10121;DHT22;5100;45.176;5.714;2022-12-07T10:03:27;8.70;68.50
10121;DHT22;5100;45.176;5.714;2022-12-07T10:05:54;8.70;68.40
10121;DHT22;5100;45.176;5.714;2022-12-07T10:08:21;8.70;68.50
10121;DHT22;5100;45.176;5.714;2022-12-07T10:10:54;8.70;68.60
10121;DHT22;5100;45.176;5.714;2022-12-07T10:13:37;8.70;68.40
10121;DHT22;5100;45.176;5.714;2022-12-07T10:16:04;8.70;68.20
10121;DHT22;5100;45.176;5.714;2022-12-07T10:18:40;8.70;68.30
10121;DHT22;5100;45.176;5.714;2022-12-07T10:21:25;8.60;68.30
10121;DHT22;5100;45.176;5.714;2022-12-07T10:24:14;8.70;68.40
10121;DHT22;5100;45.176;5.714;2022-12-07T10:26:51;8.60;68.40
10121;DHT22;5100;45.176;5.714;2022-12-07T10:32:01;8.70;68.80
10121;DHT22;5100;45.176;5.714;2022-12-07T10:34:36;8.70;68.80
10121;DHT22;5100;45.176;5.714;2022-12-07T10:42:26;8.70;68.60
10121;DHT22;5100;45.176;5.714;2022-12-07T10:45:09;8.70;68.40
10121;DHT22;5100;45.176;5.714;2022-12-07T10:53:48;8.70;68.80
10121;DHT22;5100;45.176;5.714;2022-12-07T11:01:40;8.80;68.70
10121;DHT22;5100;45.176;5.714;2022-12-07T11:04:23;8.90;68.20
10121;DHT22;5100;45.176;5.714;2022-12-07T11:15:10;8.90;67.80
10121;DHT22;5100;45.176;5.714;2022-12-07T11:20:43;8.90;67.90
10121;DHT22;5100;45.176;5.714;2022-12-07T11:23:21;8.90;67.90
10121;DHT22;5100;45.176;5.714;2022-12-07T11:26:05;8.90;68.00
10121;DHT22;5100;45.176;5.714;2022-12-07T11:33:47;8.90;67.70
10121;DHT22;5100;45.176;5.714;2022-12-07T11:36:20;9.00;67.70
10121;DHT22;5100;45.176;5.714;2022-12-07T11:38:59;9.00;67.50
10121;DHT22;5100;45.176;5.714;2022-12-07T11:41:29;9.00;67.20
10121;DHT22;5100;45.176;5.714;2022-12-07T11:44:06;9.00;67.10
10121;DHT22;5100;45.176;5.714;2022-12-07T11:52:45;9.00;67.00
10121;DHT22;5100;45.176;5.714;2022-12-07T11:55:32;9.10;67.00
10121;DHT22;5100;45.176;5.714;2022-12-07T11:58:14;9.10;67.20
10121;DHT22;5100;45.176;5.714;2022-12-07T12:00:44;9.10;66.70
10121;DHT22;5100;45.176;5.714;2022-12-07T12:03:15;9.10;66.70
10121;DHT22;5100;45.176;5.714;2022-12-07T12:05:45;9.10;66.40
10121;DHT22;5100;45.176;5.714;2022-12-07T12:08:25;9.10;66.50
10121;DHT22;5100;45.176;5.714;2022-12-07T12:13:56;9.10;66.50
10121;DHT22;5100;45.176;5.714;2022-12-07T12:16:33;9.10;66.20
10121;DHT22;5100;45.176;5.714;2022-12-07T12:19:19;9.10;66.20
10121;DHT22;5100;45.176;5.714;2022-12-07T12:21:49;9.10;66.60
10121;DHT22;5100;45.176;5.714;2022-12-07T12:24:23;9.10;66.40
10121;DHT22;5100;45.176;5.714;2022-12-07T12:27:05;9.10;66.30
10121;DHT22;5100;45.176;5.714;2022-12-07T12:29:42;9.10;66.40
10121;DHT22;5100;45.176;5.714;2022-12-07T12:37:40;9.20;66.90
10121;DHT22;5100;45.176;5.714;2022-12-07T12:42:54;9.20;67.10
10121;DHT22;5100;45.176;5.714;2022-12-07T12:45:33;9.20;66.80
10121;DHT22;5100;45.176;5.714;2022-12-07T12:50:33;9.20;66.70
10121;DHT22;5100;45.176;5.714;2022-12-07T12:53:16;9.20;66.80
10121;DHT22;5100;45.176;5.714;2022-12-07T12:59:23;9.20;66.60
10121;DHT22;5100;45.176;5.714;2022-12-07T13:01:53;9.20;66.60
10121;DHT22;5100;45.176;5.714;2022-12-07T13:04:25;9.20;66.60
10121;DHT22;5100;45.176;5.714;2022-12-07T13:06:53;9.20;66.40
10121;DHT22;5100;45.176;5.714;2022-12-07T13:09:42;9.20;66.50
10121;DHT22;5100;45.176;5.714;2022-12-07T13:12:14;9.20;66.50
10121;DHT22;5100;45.176;5.714;2022-12-07T13:19:58;9.20;66.40
10121;DHT22;5100;45.176;5.714;2022-12-07T13:27:25;9.10;66.60
10121;DHT22;5100;45.176;5.714;2022-12-07T13:29:54;9.20;66.40
10121;DHT22;5100;45.176;5.714;2022-12-07T13:32:27;9.20;66.40
10121;DHT22;5100;45.176;5.714;2022-12-07T13:34:54;9.20;66.50
10121;DHT22;5100;45.176;5.714;2022-12-07T13:37:32;9.20;66.20
10121;DHT22;5100;45.176;5.714;2022-12-07T13:40:00;9.20;66.00
10121;DHT22;5100;45.176;5.714;2022-12-07T13:42:33;9.20;65.70
10121;DHT22;5100;45.176;5.714;2022-12-07T13:45:50;9.20;65.50
10121;DHT22;5100;45.176;5.714;2022-12-07T13:48:52;9.20;65.40
10121;DHT22;5100;45.176;5.714;2022-12-07T13:51:25;9.20;65.60
10121;DHT22;5100;45.176;5.714;2022-12-07T13:54:11;9.10;65.80
10121;DHT22;5100;45.176;5.714;2022-12-07T13:56:38;9.10;65.90
10121;DHT22;5100;45.176;5.714;2022-12-07T13:59:21;9.10;65.70
10121;DHT22;5100;45.176;5.714;2022-12-07T14:01:49;9.10;65.80
10121;DHT22;5100;45.176;5.714;2022-12-07T14:06:52;9.10;65.60
10121;DHT22;5100;45.176;5.714;2022-12-07T14:09:24;9.10;65.40
10121;DHT22;5100;45.176;5.714;2022-12-07T14:11:52;9.10;65.50
10121;DHT22;5100;45.176;5.714;2022-12-07T14:14:37;9.10;65.40
10121;DHT22;5100;45.176;5.714;2022-12-07T14:17:16;9.10;65.30
10121;DHT22;5100;45.176;5.714;2022-12-07T14:19:47;9.10;65.20
10121;DHT22;5100;45.176;5.714;2022-12-07T14:22:37;9.10;65.00
10121;DHT22;5100;45.176;5.714;2022-12-07T14:25:20;9.10;64.90
10121;DHT22;5100;45.176;5.714;2022-12-07T14:27:52;9.10;64.90
10121;DHT22;5100;45.176;5.714;2022-12-07T14:30:19;9.10;65.00
10121;DHT22;5100;45.176;5.714;2022-12-07T14:32:48;9.10;65.20
10121;DHT22;5100;45.176;5.714;2022-12-07T14:35:16;9.10;65.10
10121;DHT22;5100;45.176;5.714;2022-12-07T14:37:45;9.10;64.90
10121;DHT22;5100;45.176;5.714;2022-12-07T14:40:20;9.10;64.80
10121;DHT22;5100;45.176;5.714;2022-12-07T14:42:52;9.10;65.00
10121;DHT22;5100;45.176;5.714;2022-12-07T14:45:21;9.10;64.80
10121;DHT22;5100;45.176;5.714;2022-12-07T14:47:48;9.10;64.80
10121;DHT22;5100;45.176;5.714;2022-12-07T14:50:17;9.10;64.50
10121;DHT22;5100;45.176;5.714;2022-12-07T14:52:47;9.10;64.30
10121;DHT22;5100;45.176;5.714;2022-12-07T14:55:27;9.10;64.20
10121;DHT22;5100;45.176;5.714;2022-12-07T14:57:54;9.10;63.90
10121;DHT22;5100;45.176;5.714;2022-12-07T15:00:23;9.10;64.10
10121;DHT22;5100;45.176;5.714;2022-12-07T15:02:50;9.10;63.90
10121;DHT22;5100;45.176;5.714;2022-12-07T15:05:17;9.10;63.90
10121;DHT22;5100;45.176;5.714;2022-12-07T15:07:45;9.10;64.20
10121;DHT22;5100;45.176;5.714;2022-12-07T15:10:21;9.10;64.30
10121;DHT22;5100;45.176;5.714;2022-12-07T15:12:47;9.10;64.40
10121;DHT22;5100;45.176;5.714;2022-12-07T15:15:13;9.10;64.20
10121;DHT22;5100;45.176;5.714;2022-12-07T15:17:40;9.10;63.80
10121;DHT22;5100;45.176;5.714;2022-12-07T15:20:12;9.10;63.90
10121;DHT22;5100;45.176;5.714;2022-12-07T15:22:38;9.10;63.90
10121;DHT22;5100;45.176;5.714;2022-12-07T15:25:04;9.10;64.10
10121;DHT22;5100;45.176;5.714;2022-12-07T15:27:32;9.10;63.90
10121;DHT22;5100;45.176;5.714;2022-12-07T15:29:58;9.10;63.70
10121;DHT22;5100;45.176;5.714;2022-12-07T15:32:24;9.10;63.80
10121;DHT22;5100;45.176;5.714;2022-12-07T15:34:50;9.10;63.80
10121;DHT22;5100;45.176;5.714;2022-12-07T15:37:16;9.10;64.30
10121;DHT22;5100;45.176;5.714;2022-12-07T15:39:42;9.10;64.50
10121;DHT22;5100;45.176;5.714;2022-12-07T15:42:08;9.10;64.40
10121;DHT22;5100;45.176;5.714;2022-12-07T15:44:34;9.10;64.30
10121;DHT22;5100;45.176;5.714;2022-12-07T15:47:19;9.10;64.20
10121;DHT22;5100;45.176;5.714;2022-12-07T15:49:44;9.10;64.50
10121;DHT22;5100;45.176;5.714;2022-12-07T15:52:10;9.10;64.50
10121;DHT22;5100;45.176;5.714;2022-12-07T15:54:37;9.10;64.70
10121;DHT22;5100;45.176;5.714;2022-12-07T15:57:03;9.10;64.80
10121;DHT22;5100;45.176;5.714;2022-12-07T15:59:29;9.10;65.00
10121;DHT22;5100;45.176;5.714;2022-12-07T16:01:55;9.10;64.70
10121;DHT22;5100;45.176;5.714;2022-12-07T16:04:22;9.10;64.40
10121;DHT22;5100;45.176;5.714;2022-12-07T16:06:48;9.10;64.30
10121;DHT22;5100;45.176;5.714;2022-12-07T16:09:16;9.10;64.20
10121;DHT22;5100;45.176;5.714;2022-12-07T16:11:43;9.10;64.20
10121;DHT22;5100;45.176;5.714;2022-12-07T16:14:09;9.10;64.20
10121;DHT22;5100;45.176;5.714;2022-12-07T16:16:35;9.10;64.30
10121;DHT22;5100;45.176;5.714;2022-12-07T16:19:01;9.10;64.60
10121;DHT22;5100;45.176;5.714;2022-12-07T16:21:28;9.00;64.70
10121;DHT22;5100;45.176;5.714;2022-12-07T16:23:56;9.00;64.80
10121;DHT22;5100;45.176;5.714;2022-12-07T16:26:23;9.00;64.50
10121;DHT22;5100;45.176;5.714;2022-12-07T16:28:53;9.00;64.50
10121;DHT22;5100;45.176;5.714;2022-12-07T16:31:21;9.00;64.30
10121;DHT22;5100;45.176;5.714;2022-12-07T16:33:49;9.00;64.00
10121;DHT22;5100;45.176;5.714;2022-12-07T16:36:17;9.00;64.00
10121;DHT22;5100;45.176;5.714;2022-12-07T16:38:44;9.00;64.00
10121;DHT22;5100;45.176;5.714;2022-12-07T16:41:10;9.00;64.10
10121;DHT22;5100;45.176;5.714;2022-12-07T16:43:37;9.00;64.20
10121;DHT22;5100;45.176;5.714;2022-12-07T16:46:03;9.00;64.30
10121;DHT22;5100;45.176;5.714;2022-12-07T16:48:30;9.00;64.40
10121;DHT22;5100;45.176;5.714;2022-12-07T16:50:56;9.00;64.30
10121;DHT22;5100;45.176;5.714;2022-12-07T16:53:23;9.00;64.30
10121;DHT22;5100;45.176;5.714;2022-12-07T16:55:50;9.00;64.40
10121;DHT22;5100;45.176;5.714;2022-12-07T16:58:17;9.00;64.20
10121;DHT22;5100;45.176;5.714;2022-12-07T17:00:44;9.00;64.10
10121;DHT22;5100;45.176;5.714;2022-12-07T17:03:10;9.00;64.20
10121;DHT22;5100;45.176;5.714;2022-12-07T17:05:42;9.00;64.20
10121;DHT22;5100;45.176;5.714;2022-12-07T17:08:09;9.00;64.20
10121;DHT22;5100;45.176;5.714;2022-12-07T17:10:38;9.00;64.10
10121;DHT22;5100;45.176;5.714;2022-12-07T17:13:05;9.00;64.10
10121;DHT22;5100;45.176;5.714;2022-12-07T17:16:03;9.00;64.10
10121;DHT22;5100;45.176;5.714;2022-12-07T17:18:35;9.00;64.00
10121;DHT22;5100;45.176;5.714;2022-12-07T17:21:04;8.90;64.00
10121;DHT22;5100;45.176;5.714;2022-12-07T17:23:31;9.00;64.00
10121;DHT22;5100;45.176;5.714;2022-12-07T17:26:19;8.90;63.90
10121;DHT22;5100;45.176;5.714;2022-12-07T17:28:46;8.90;64.10
10121;DHT22;5100;45.176;5.714;2022-12-07T17:31:14;9.00;63.90
10121;DHT22;5100;45.176;5.714;2022-12-07T17:33:40;9.00;63.70
10121;DHT22;5100;45.176;5.714;2022-12-07T17:36:11;9.00;63.60
10121;DHT22;5100;45.176;5.714;2022-12-07T17:38:37;9.00;63.60
10121;DHT22;5100;45.176;5.714;2022-12-07T17:41:14;9.00;63.70
10121;DHT22;5100;45.176;5.714;2022-12-07T17:44:06;9.00;63.30
10121;DHT22;5100;45.176;5.714;2022-12-07T17:46:33;9.00;63.10
10121;DHT22;5100;45.176;5.714;2022-12-07T17:48:59;9.00;63.10
10121;DHT22;5100;45.176;5.714;2022-12-07T17:51:26;9.00;63.00
10121;DHT22;5100;45.176;5.714;2022-12-07T17:54:11;9.00;62.90
10121;DHT22;5100;45.176;5.714;2022-12-07T17:56:37;9.00;62.90
10121;DHT22;5100;45.176;5.714;2022-12-07T17:59:05;9.00;62.90
10121;DHT22;5100;45.176;5.714;2022-12-07T18:01:31;9.00;63.00
10121;DHT22;5100;45.176;5.714;2022-12-07T18:03:58;9.00;62.90